Pagina principale
METAR-TAF:

METAR-TAF

Aeroporti :

Aeroporto di Chengdu-Shuangliu

Chengdu, Cina

latitudine: 30-40N, longitudine: 104-01E, altezza: 508 m

Osservazione

Il bollettino è stato emesso 35 minuti fa, alle 21:00 UTC
Vento calmo
Temperature 26°C
Umidità 89%
Pressione 1003 hPa
Visibilità: 6000 m
Nubi sparse ad un'altezza di 3300 ft

METAR: ZUUU 202100Z 00000MPS 6000 SCT033 26/24 Q1003 NOSIG

Ora: 05:35 (21:35 UTC)

Previsione

Il bollettino è stato emesso 7 ore e 22 minuti fa, alle 14:13 UTC
Previsione valida dal 20 alle 18 UTC al 21 alle 18 UTC
Vento 6 kt da nord/nord-est
Visibilità: 5000 m
Poco nuvoloso ad un'altezza di 3000 ft, Cumulonembo.
Nubi sparse ad un'altezza di 4000 ft
foschia
Temporaneamente
dal 20 alle 19 UTC al 20 alle 23 UTC
rovesci di pioggia

TAF: ZUUU 201413Z 2018/2118 03003MPS 5000 BR FEW030CB SCT040 TX30/2107Z TN22/2023Z TEMPO 2019/2023 -SHRA

Osservazioni e previsioni meteorologiche di più di 4000 aeroporti (messaggi METAR e TAF).

Le stazioni disponibili sono rappresentate dai dischi gialli e rossi sulla carta.

Puntare il mouse per vedere il nome della stazione.

Clicca sopra per visualizzare le osservazioni e previsioni meteorologiche.

Per cambiare la mappa : fare clic sui pulsanti verdi con una croce nera per ingrandire, il pulsante verde con un trattino per diminuire, o sulla freccia verde per le mappe adiacenti.


METAR-TAF: